Time;durP1;ratioP1;P1;durP2;ratioP2;P2;SDS_P1;SDS_P2;PMS_P1;PMS_P2;Temp;Humidity;BMP_temperature;BMP_pressure;BME280_temperature;BME280_humidity;BME280_pressure;Samples;Min_cycle;Max_cycle;Signal;HPM_P1;HPM_P2
2023/01/05 00:00:54;;;;;;;20.40;12.60;;;;;;;7.91;63.08;95768.59;5008499;28;20026;-77
2023/01/05 00:03:19;;;;;;;19.20;12.70;;;;;;;7.92;63.13;95775.63;5025678;28;20060;-78
2023/01/05 00:05:44;;;;;;;20.48;12.65;;;;;;;7.81;63.00;95753.00;5008408;28;20497;-76
2023/01/05 00:08:10;;;;;;;21.77;12.48;;;;;;;8.06;62.50;95780.22;5025515;28;20447;-77
2023/01/05 00:24:22;;;;;;;;;;;;;;;8.31;61.76;95754.63;5025972;28;20035;-76
2023/01/05 00:26:48;;;;;;;17.35;10.75;;;;;;;8.29;61.34;95754.28;5024471;28;20008;-77
2023/01/05 00:29:13;;;;;;;19.83;12.20;;;;;;;8.27;61.42;95749.19;5025360;28;20025;-77
2023/01/05 00:31:39;;;;;;;18.25;11.60;;;;;;;8.28;61.66;95747.25;5024566;28;20036;-77
2023/01/05 00:34:04;;;;;;;19.83;12.40;;;;;;;8.33;61.63;95750.34;5008488;28;20025;-77
2023/01/05 00:36:29;;;;;;;18.60;12.63;;;;;;;8.33;61.36;95735.84;5024435;28;20091;-77
2023/01/05 00:38:55;;;;;;;20.13;12.55;;;;;;;8.34;61.26;95729.19;5026296;28;20025;-77
2023/01/05 00:41:20;;;;;;;19.67;11.98;;;;;;;8.34;61.34;95732.72;5010019;28;20416;-76
2023/01/05 00:43:46;;;;;;;18.17;12.00;;;;;;;8.36;61.35;95732.31;5024064;28;20025;-77
2023/01/05 00:46:11;;;;;;;19.92;12.27;;;;;;;8.35;61.31;95738.97;5024689;28;20078;-77
2023/01/05 00:48:37;;;;;;;19.10;12.07;;;;;;;8.32;61.34;95732.34;5007854;28;20026;-77
2023/01/05 00:51:02;;;;;;;18.65;12.07;;;;;;;8.34;61.38;95734.66;5008092;28;20127;-76
2023/01/05 00:53:27;;;;;;;17.77;11.75;;;;;;;8.23;61.30;95715.56;5007834;28;20030;-76
2023/01/05 00:55:57;;;;;;;17.80;12.05;;;;;;;8.31;61.66;95738.97;5007962;28;20368;-77
2023/01/05 00:58:22;;;;;;;18.95;12.10;;;;;;;8.16;61.97;95734.78;5008046;28;20079;-76
2023/01/05 01:00:48;;;;;;;20.15;12.15;;;;;;;8.00;62.34;95721.59;5025389;28;20025;-76
2023/01/05 01:03:13;;;;;;;18.70;12.02;;;;;;;7.95;62.76;95732.97;5008071;28;20033;-76
2023/01/05 01:05:39;;;;;;;17.17;11.45;;;;;;;7.93;62.98;95733.38;5007598;28;20026;-77
2023/01/05 01:08:04;;;;;;;18.13;11.48;;;;;;;7.90;62.94;95738.84;5024022;28;20068;-76
2023/01/05 01:10:30;;;;;;;18.60;12.73;;;;;;;7.93;62.81;95740.81;5024007;28;20033;-77
2023/01/05 01:12:55;;;;;;;16.90;11.57;;;;;;;7.86;63.01;95727.94;5024426;28;20024;-76
2023/01/05 01:15:20;;;;;;;19.90;12.45;;;;;;;7.91;63.08;95733.00;5007322;28;20024;-76
2023/01/05 01:17:46;;;;;;;17.38;12.32;;;;;;;7.85;62.79;95731.06;5024156;28;20036;-78
2023/01/05 01:20:12;;;;;;;18.55;11.63;;;;;;;7.89;62.80;95727.13;5025492;28;20095;-78
2023/01/05 01:22:37;;;;;;;17.35;11.80;;;;;;;7.86;63.21;95736.16;5007340;28;20032;-77
2023/01/05 01:25:03;;;;;;;19.67;12.90;;;;;;;7.95;62.71;95727.50;5023926;28;20037;-76
2023/01/05 01:27:31;;;;;;;22.02;12.52;;;;;;;7.94;62.58;95715.75;5007513;28;20041;-77
2023/01/05 01:29:57;;;;;;;23.15;14.70;;;;;;;7.93;62.60;95705.22;5007764;28;20095;-77
2023/01/05 01:32:23;;;;;;;23.10;13.13;;;;;;;8.01;62.44;95706.72;5007043;28;20471;-76
2023/01/05 01:34:49;;;;;;;22.38;13.38;;;;;;;8.06;62.33;95700.81;5008226;28;20025;-77
2023/01/05 01:37:15;;;;;;;24.70;14.27;;;;;;;8.14;61.93;95698.81;5009375;28;20026;-77
2023/01/05 01:39:40;;;;;;;21.40;13.20;;;;;;;8.21;61.66;95702.28;5007474;28;20025;-77
2023/01/05 01:42:09;;;;;;;19.55;12.80;;;;;;;8.27;61.83;95699.91;5007670;28;20360;-78
2023/01/05 01:44:57;;;;;;;21.63;13.63;;;;;;;8.34;61.53;95696.31;5007944;28;20039;-78
2023/01/05 01:47:36;;;;;;;24.00;13.88;;;;;;;8.37;61.23;95690.03;5009527;28;20021;-78
2023/01/05 01:50:11;;;;;;;19.95;13.80;;;;;;;8.45;60.93;95683.34;5007412;28;20232;-77
2023/01/05 01:52:37;;;;;;;19.38;12.77;;;;;;;8.48;60.88;95677.03;5009004;28;20034;-78
2023/01/05 01:55:03;;;;;;;21.48;13.40;;;;;;;8.50;60.57;95671.94;5007210;28;20028;-77
2023/01/05 01:57:28;;;;;;;21.85;13.27;;;;;;;8.54;60.42;95671.88;5007395;28;20621;-80
2023/01/05 01:59:54;;;;;;;22.23;14.35;;;;;;;8.59;60.63;95674.19;5023619;28;20029;-77
2023/01/05 02:02:20;;;;;;;22.38;15.10;;;;;;;8.57;60.25;95663.66;5023563;28;20061;-77
2023/01/05 02:04:45;;;;;;;21.95;14.13;;;;;;;8.63;60.22;95664.00;5007353;28;20033;-76
2023/01/05 02:07:11;;;;;;;24.10;14.10;;;;;;;8.63;60.34;95662.03;5007001;28;20107;-77
2023/01/05 02:09:36;;;;;;;20.98;13.50;;;;;;;8.62;60.35;95652.25;5007875;28;20029;-76
2023/01/05 02:12:06;;;;;;;24.83;14.80;;;;;;;8.64;60.19;95644.38;5024955;28;20520;-76
2023/01/05 02:14:59;;;;;;;22.60;14.20;;;;;;;8.66;60.11;95643.97;5007370;28;20426;-76
2023/01/05 02:17:36;;;;;;;23.80;14.00;;;;;;;8.64;60.28;95641.66;5025410;28;20033;-76
2023/01/05 02:20:24;;;;;;;20.65;13.40;;;;;;;8.65;60.28;95645.94;5024600;28;20409;-76
2023/01/05 02:23:19;;;;;;;22.02;13.38;;;;;;;8.67;60.09;95648.28;5024912;28;20496;-77
2023/01/05 02:25:50;;;;;;;22.00;13.95;;;;;;;8.68;59.98;95645.13;5021293;28;20050;-78
2023/01/05 02:28:53;;;;;;;20.52;12.57;;;;;;;8.69;60.07;95643.94;5024635;28;20067;-78
2023/01/05 02:31:24;;;;;;;22.23;13.23;;;;;;;8.69;60.03;95645.91;5024536;28;20067;-77
2023/01/05 02:33:59;;;;;;;19.15;12.10;;;;;;;8.70;59.64;95647.47;5024266;28;20041;-77
2023/01/05 02:36:43;;;;;;;19.98;13.23;;;;;;;8.67;60.20;95648.28;5007492;28;20033;-77
2023/01/05 02:39:20;;;;;;;21.30;13.10;;;;;;;8.61;60.17;95645.22;5024909;28;20099;-77
2023/01/05 02:41:51;;;;;;;20.33;12.85;;;;;;;8.64;60.41;95638.13;5007041;28;20029;-77
2023/01/05 02:44:17;;;;;;;21.63;13.73;;;;;;;8.63;59.96;95636.56;5025395;28;20037;-77
2023/01/05 02:46:43;;;;;;;21.55;12.90;;;;;;;8.58;60.11;95631.53;5010844;28;20079;-76
2023/01/05 02:49:09;;;;;;;20.88;13.45;;;;;;;8.58;60.16;95626.84;5009971;28;20467;-76
2023/01/05 02:51:44;;;;;;;20.65;13.23;;;;;;;8.58;60.20;95626.06;5010729;28;20079;-76
2023/01/05 02:54:22;;;;;;;24.02;13.95;;;;;;;8.52;60.50;95623.75;5026716;28;20030;-77
2023/01/05 02:56:57;;;;;;;21.48;14.70;;;;;;;8.49;60.29;95627.31;5011266;28;20022;-76
2023/01/05 02:59:32;;;;;;;22.73;14.27;;;;;;;8.51;60.42;95618.69;5026562;28;20045;-77
2023/01/05 03:02:00;;;;;;;20.25;13.55;;;;;;;8.52;60.27;95622.97;5010047;28;20040;-76
2023/01/05 03:04:29;;;;;;;23.48;14.88;;;;;;;8.49;60.26;95619.09;5010517;28;20495;-78
2023/01/05 03:06:59;;;;;;;23.70;14.32;;;;;;;8.47;60.44;95612.47;5009963;28;20021;-76
2023/01/05 03:09:27;;;;;;;24.92;14.75;;;;;;;8.48;60.42;95603.81;5010919;28;20389;-76
2023/01/05 03:14:59;;;;;;;25.27;15.45;;;;;;;8.54;60.53;95590.47;5026381;28;20037;-76
2023/01/05 03:17:45;;;;;;;19.98;13.43;;;;;;;8.57;60.13;95580.66;5010350;28;20031;-76
2023/01/05 03:20:12;;;;;;;20.65;13.32;;;;;;;8.54;60.14;95573.25;5025683;28;20033;-76
2023/01/05 03:36:52;;;;;;;23.27;13.70;;;;;;;8.35;60.92;95567.13;5013500;28;20056;-76
2023/01/05 03:39:18;;;;;;;20.70;13.45;;;;;;;8.29;60.71;95566.03;5010569;28;20036;-78
2023/01/05 03:41:45;;;;;;;23.83;13.05;;;;;;;8.27;60.80;95562.16;5009077;28;20026;-76
2023/01/05 03:44:10;;;;;;;19.58;13.32;;;;;;;8.26;60.96;95558.63;5009761;28;20052;-78
2023/01/05 03:46:36;;;;;;;23.85;13.30;;;;;;;8.23;60.92;95571.16;5025375;28;20484;-78
2023/01/05 03:49:01;;;;;;;22.27;14.98;;;;;;;8.20;60.89;95566.53;5009526;28;20030;-77
2023/01/05 03:51:26;;;;;;;24.73;13.63;;;;;;;8.16;60.82;95568.50;5028650;28;20029;-76
2023/01/05 03:53:52;;;;;;;23.23;14.35;;;;;;;8.21;60.89;95565.34;5009438;28;20037;-79
2023/01/05 03:56:17;;;;;;;24.05;14.38;;;;;;;8.14;60.71;95562.66;5009077;28;20485;-76
2023/01/05 03:58:43;;;;;;;23.10;15.20;;;;;;;8.14;60.73;95573.63;5008743;28;20033;-77
2023/01/05 04:01:08;;;;;;;22.88;14.95;;;;;;;8.11;60.71;95570.91;5026183;28;20025;-76
2023/01/05 04:03:34;;;;;;;27.52;15.70;;;;;;;8.08;61.20;95567.00;5025512;28;20022;-77
2023/01/05 04:06:00;;;;;;;26.65;15.85;;;;;;;8.05;61.24;95554.13;5026121;28;20033;-76
2023/01/05 04:08:25;;;;;;;27.05;16.00;;;;;;;8.01;61.44;95553.38;5026519;28;20062;-77
2023/01/05 04:10:52;;;;;;;24.58;16.00;;;;;;;7.98;61.31;95549.50;5025195;28;20026;-76
2023/01/05 04:13:18;;;;;;;27.20;15.82;;;;;;;7.92;61.15;95548.38;5009320;28;20129;-75
2023/01/05 04:15:43;;;;;;;30.48;18.10;;;;;;;7.88;61.87;95542.16;5008656;28;20041;-76
2023/01/05 04:18:09;;;;;;;33.20;18.45;;;;;;;7.81;61.81;95536.75;5008893;28;20025;-77
2023/01/05 04:20:34;;;;;;;32.83;18.63;;;;;;;7.76;61.88;95548.13;5008231;28;20025;-78
2023/01/05 04:23:00;;;;;;;29.52;18.73;;;;;;;7.72;61.60;95542.69;5025123;28;20037;-79
2023/01/05 04:25:25;;;;;;;26.73;17.15;;;;;;;7.68;61.47;95533.75;5008559;28;20032;-77
2023/01/05 04:27:51;;;;;;;27.27;16.90;;;;;;;7.64;61.57;95535.72;5025279;28;20036;-77
2023/01/05 04:30:16;;;;;;;29.63;18.42;;;;;;;7.60;61.54;95534.19;5024889;28;20538;-75
2023/01/05 04:32:42;;;;;;;30.75;19.27;;;;;;;7.60;61.72;95534.19;5024910;28;20385;-75
2023/01/05 04:35:07;;;;;;;28.08;18.13;;;;;;;7.57;61.86;95541.25;5026241;28;20025;-77
2023/01/05 04:37:33;;;;;;;32.05;18.48;;;;;;;7.56;62.01;95549.84;5007962;28;20545;-78
2023/01/05 04:39:58;;;;;;;29.25;18.52;;;;;;;7.43;61.84;95535.88;5008454;28;20025;-77
2023/01/05 04:42:24;;;;;;;33.03;20.02;;;;;;;7.51;62.02;95544.78;5007910;28;20033;-76
2023/01/05 04:44:49;;;;;;;38.53;19.33;;;;;;;7.47;61.94;95550.31;5008868;28;20028;-76
2023/01/05 04:47:15;;;;;;;33.03;19.10;;;;;;;7.41;62.32;95555.44;5007819;28;20411;-77
2023/01/05 04:49:40;;;;;;;33.65;20.77;;;;;;;7.33;62.43;95544.91;5024875;28;20036;-77
2023/01/05 04:52:07;;;;;;;31.15;19.23;;;;;;;7.30;62.48;95545.72;5008430;28;20032;-76
2023/01/05 04:54:32;;;;;;;43.83;20.20;;;;;;;7.30;62.45;95541.03;5024127;28;20112;-77
2023/01/05 04:56:58;;;;;;;34.95;21.63;;;;;;;7.28;62.49;95548.06;5024616;28;20087;-76
2023/01/05 04:59:23;;;;;;;33.78;21.38;;;;;;;7.24;62.78;95547.34;5007696;28;20079;-77
2023/01/05 05:01:49;;;;;;;33.05;21.33;;;;;;;7.23;62.76;95543.81;5008641;28;20418;-76
2023/01/05 05:04:14;;;;;;;35.08;22.30;;;;;;;7.23;62.76;95554.00;5024163;28;20087;-77
2023/01/05 05:06:40;;;;;;;39.15;23.88;;;;;;;7.16;62.44;95552.06;5008047;28;20035;-76
2023/01/05 05:09:05;;;;;;;38.15;23.80;;;;;;;7.16;62.42;95558.28;5023558;28;20018;-77
2023/01/05 05:11:31;;;;;;;34.17;22.30;;;;;;;7.22;62.21;95564.13;4991299;28;20037;-77
2023/01/05 05:13:56;;;;;;;34.65;21.65;;;;;;;7.19;62.11;95559.47;5024057;28;20056;-77
2023/01/05 05:16:21;;;;;;;31.38;20.80;;;;;;;7.22;62.13;95561.38;5007333;28;20112;-78
2023/01/05 05:18:47;;;;;;;31.42;21.58;;;;;;;7.14;62.60;95568.88;5026180;28;20472;-78
2023/01/05 05:21:12;;;;;;;35.28;21.48;;;;;;;7.17;63.49;95564.56;4992388;28;20412;-77
2023/01/05 05:23:39;;;;;;;34.47;21.67;;;;;;;7.10;62.94;95554.44;5008264;28;20017;-77
2023/01/05 05:26:04;;;;;;;31.45;20.58;;;;;;;7.10;63.15;95559.13;5023864;28;20056;-78
2023/01/05 05:28:30;;;;;;;30.25;19.95;;;;;;;7.08;62.36;95553.28;5007780;28;20449;-78
2023/01/05 05:30:55;;;;;;;31.42;20.38;;;;;;;7.11;63.04;95550.53;5007428;28;20348;-77
2023/01/05 05:33:22;;;;;;;33.03;20.40;;;;;;;7.10;62.11;95546.22;5023819;28;20508;-77
2023/01/05 05:35:47;;;;;;;30.95;20.92;;;;;;;7.03;62.95;95534.56;5007840;28;20086;-79
2023/01/05 05:38:12;;;;;;;28.27;17.65;;;;;;;7.05;63.88;95545.88;5006681;28;20037;-77
2023/01/05 05:40:38;;;;;;;28.15;17.92;;;;;;;6.97;63.92;95536.16;5024368;28;20037;-77
2023/01/05 05:43:04;;;;;;;28.50;18.30;;;;;;;6.85;64.54;95540.13;4990411;28;20040;-78
2023/01/05 05:45:29;;;;;;;28.52;17.88;;;;;;;6.75;64.88;95519.09;5025761;28;20036;-77
2023/01/05 05:47:56;;;;;;;29.77;18.02;;;;;;;6.75;64.83;95527.28;5024979;28;20021;-78
2023/01/05 05:50:22;;;;;;;30.45;17.92;;;;;;;6.74;65.26;95523.78;5023698;28;20116;-78
2023/01/05 05:52:48;;;;;;;31.00;18.98;;;;;;;6.61;65.33;95515.25;5023924;28;20112;-76
2023/01/05 05:55:13;;;;;;;27.83;18.38;;;;;;;6.67;65.91;95523.03;5006781;28;20115;-77
2023/01/05 05:57:39;;;;;;;30.42;17.92;;;;;;;6.62;65.77;95525.00;5024158;28;20027;-76
2023/01/05 06:00:05;;;;;;;31.83;19.27;;;;;;;6.55;65.02;95519.56;5006581;28;20033;-78
2023/01/05 06:02:30;;;;;;;31.92;19.15;;;;;;;6.55;65.35;95511.38;5024822;28;20034;-77
2023/01/05 06:04:56;;;;;;;34.47;20.15;;;;;;;6.57;64.71;95514.47;5023178;28;20033;-76
2023/01/05 06:07:21;;;;;;;35.00;20.85;;;;;;;6.59;65.92;95505.88;5007232;28;20052;-77
2023/01/05 06:09:47;;;;;;;34.85;20.48;;;;;;;6.55;65.90;95511.38;5007568;28;20129;-74
2023/01/05 06:12:12;;;;;;;33.17;20.08;;;;;;;6.54;65.80;95503.59;5007994;28;20065;-76
2023/01/05 06:14:38;;;;;;;34.00;20.33;;;;;;;6.53;65.99;95502.78;5025847;28;20025;-75
2023/01/05 06:17:03;;;;;;;31.15;19.65;;;;;;;6.53;66.27;95497.31;5023274;28;20025;-76
2023/01/05 06:19:29;;;;;;;31.20;19.40;;;;;;;6.56;65.91;95493.81;5027760;28;20021;-75
2023/01/05 06:21:54;;;;;;;35.17;21.13;;;;;;;6.54;65.50;95493.44;5010474;28;20408;-76
2023/01/05 06:24:20;;;;;;;33.63;21.08;;;;;;;6.62;65.12;95503.13;5028252;28;20380;-76
2023/01/05 06:26:46;;;;;;;37.10;21.30;;;;;;;6.61;65.16;95498.09;5027193;28;20021;-76
2023/01/05 06:29:11;;;;;;;36.22;21.20;;;;;;;6.61;64.76;95492.63;5027134;28;20040;-76
2023/01/05 06:31:36;;;;;;;34.97;20.50;;;;;;;6.69;64.77;95505.06;5010824;28;20041;-75
2023/01/05 06:34:02;;;;;;;39.45;21.00;;;;;;;6.69;64.55;95491.41;5026827;28;20122;-76
2023/01/05 06:36:27;;;;;;;34.25;22.73;;;;;;;6.71;64.25;95502.72;5028995;28;20017;-76
2023/01/05 06:38:53;;;;;;;37.85;23.20;;;;;;;6.77;63.66;95503.09;5026373;28;20416;-76
2023/01/05 06:41:18;;;;;;;42.80;24.08;;;;;;;6.77;63.87;95492.94;5027432;28;20017;-77
2023/01/05 06:43:44;;;;;;;41.85;24.17;;;;;;;6.82;63.28;95491.72;5009965;28;20017;-75
2023/01/05 06:46:09;;;;;;;38.92;24.65;;;;;;;6.88;62.76;95506.50;5010483;28;20415;-74
2023/01/05 06:48:35;;;;;;;39.97;25.38;;;;;;;6.94;62.85;95499.47;5010118;28;20033;-76
2023/01/05 06:51:00;;;;;;;39.20;24.67;;;;;;;7.00;63.07;95497.88;5028161;28;20482;-75
2023/01/05 06:53:26;;;;;;;43.75;24.95;;;;;;;6.98;62.54;95488.50;5027016;28;20032;-75
2023/01/05 06:55:51;;;;;;;41.55;24.85;;;;;;;7.07;62.40;95492.34;5026635;28;20018;-76
2023/01/05 06:58:17;;;;;;;40.72;26.27;;;;;;;7.09;61.98;95484.53;5026814;28;20017;-75
2023/01/05 07:00:42;;;;;;;49.15;27.45;;;;;;;7.10;61.92;95486.06;5009492;28;20088;-75
2023/01/05 07:03:13;;;;;;;42.97;27.27;;;;;;;7.17;61.94;95491.53;5026872;28;20460;-75
2023/01/05 07:05:39;;;;;;;44.55;25.67;;;;;;;7.21;62.70;95485.22;5026419;28;20033;-76
2023/01/05 07:08:04;;;;;;;40.55;26.23;;;;;;;7.24;62.33;95489.91;5026279;28;20053;-75
2023/01/05 07:10:30;;;;;;;39.53;25.58;;;;;;;7.27;62.28;95481.66;5010066;28;20047;-75
2023/01/05 07:12:55;;;;;;;42.63;27.30;;;;;;;7.36;62.04;95492.16;5009522;28;20464;-77
2023/01/05 07:15:21;;;;;;;45.03;29.15;;;;;;;7.44;61.83;95482.72;5026292;28;20266;-76
2023/01/05 07:17:46;;;;;;;54.10;33.42;;;;;;;7.53;61.42;95480.31;4993004;28;20032;-79
2023/01/05 07:20:12;;;;;;;61.25;36.03;;;;;;;7.70;60.93;95489.53;5026435;28;20033;-76
2023/01/05 07:22:38;;;;;;;54.05;30.77;;;;;;;7.82;60.83;95485.53;5025683;28;20029;-76
2023/01/05 07:25:03;;;;;;;49.35;29.17;;;;;;;7.91;60.42;95483.06;5027779;28;20024;-75
2023/01/05 07:27:29;;;;;;;45.20;28.90;;;;;;;8.03;60.34;95481.78;5009540;28;20030;-75
2023/01/05 07:29:54;;;;;;;49.10;28.92;;;;;;;8.12;60.24;95477.38;5025053;28;20021;-77
2023/01/05 07:32:20;;;;;;;46.95;30.52;;;;;;;8.34;59.63;95477.16;5009582;28;20021;-76
2023/01/05 07:34:45;;;;;;;48.15;30.20;;;;;;;8.49;58.92;95482.09;5008930;28;20095;-75
2023/01/05 07:37:11;;;;;;;48.97;29.58;;;;;;;8.69;58.44;95474.00;5009832;28;20469;-76
2023/01/05 07:39:36;;;;;;;44.63;29.52;;;;;;;8.85;58.15;95470.66;5009132;28;20025;-78
2023/01/05 07:42:02;;;;;;;45.55;30.50;;;;;;;9.04;57.88;95469.22;5009844;28;20051;-76
2023/01/05 07:44:27;;;;;;;41.58;27.45;;;;;;;9.30;57.04;95467.69;5025972;28;20029;-77
2023/01/05 07:46:53;;;;;;;43.78;26.80;;;;;;;9.57;56.60;95467.63;5027313;28;20041;-76
2023/01/05 07:49:19;;;;;;;42.38;26.98;;;;;;;9.72;56.19;95451.69;5009051;28;20116;-75
2023/01/05 07:51:44;;;;;;;43.55;27.65;;;;;;;9.96;55.66;95450.47;5025351;28;20079;-76
2023/01/05 07:54:11;;;;;;;46.08;30.08;;;;;;;10.29;54.64;95450.69;5025740;28;20026;-76
2023/01/05 07:56:36;;;;;;;41.58;27.83;;;;;;;10.49;54.64;95447.91;5008523;28;20578;-74
2023/01/05 07:59:02;;;;;;;41.80;28.73;;;;;;;10.90;53.59;95455.72;5009274;28;20041;-75
2023/01/05 08:01:27;;;;;;;35.80;24.35;;;;;;;11.23;52.79;95453.78;5008513;28;20029;-75
2023/01/05 08:03:52;;;;;;;35.20;23.60;;;;;;;11.61;51.89;95453.28;5025608;28;20044;-77
2023/01/05 08:06:18;;;;;;;35.30;24.10;;;;;;;12.02;50.81;95449.91;5026769;28;20017;-76
2023/01/05 08:08:44;;;;;;;36.13;24.60;;;;;;;12.79;48.40;95450.94;5008947;28;20038;-75
2023/01/05 08:11:11;;;;;;;42.65;26.05;;;;;;;14.24;45.67;95453.03;5008910;28;20091;-77
2023/01/05 08:16:20;;;;;;;37.63;24.70;;;;;;;17.36;38.68;95444.72;5025631;28;20032;-75
2023/01/05 08:18:46;;;;;;;42.97;24.67;;;;;;;18.78;35.75;95448.03;5008238;28;20033;-76
2023/01/05 08:21:11;;;;;;;61.47;30.20;;;;;;;20.19;33.29;95446.22;5008699;28;20412;-75
2023/01/05 08:23:37;;;;;;;51.83;29.13;;;;;;;21.17;31.80;95449.09;5025401;28;20097;-74
2023/01/05 08:26:16;;;;;;;41.13;23.50;;;;;;;22.17;30.01;95453.91;5009053;28;20415;-76
2023/01/05 08:28:41;;;;;;;30.33;21.33;;;;;;;23.04;28.78;95452.47;5010428;28;20036;-74
2023/01/05 08:31:09;;;;;;;27.02;20.17;;;;;;;23.90;27.30;95452.00;5008412;28;20037;-74
2023/01/05 08:33:35;;;;;;;25.02;19.95;;;;;;;24.83;26.29;95451.44;5025887;28;20025;-76
2023/01/05 08:36:00;;;;;;;26.27;19.38;;;;;;;25.70;24.73;95447.06;5024110;28;20029;-77
2023/01/05 08:38:26;;;;;;;24.52;19.67;;;;;;;26.40;23.91;95453.03;5025143;28;20053;-76
2023/01/05 08:40:52;;;;;;;29.08;21.88;;;;;;;27.24;22.50;95451.97;5008545;28;20027;-75
2023/01/05 08:43:17;;;;;;;25.40;21.75;;;;;;;28.19;21.56;95452.50;5023926;28;20061;-77
2023/01/05 08:45:47;;;;;;;26.63;20.00;;;;;;;29.03;20.98;95440.31;5008418;28;20061;-77
2023/01/05 08:48:12;;;;;;;26.85;17.63;;;;;;;29.80;19.46;95441.09;5007590;28;20029;-75
2023/01/05 08:50:38;;;;;;;21.63;18.08;;;;;;;30.45;18.81;95438.38;5025425;28;20152;-75
2023/01/05 08:53:03;;;;;;;22.25;18.20;;;;;;;31.15;18.34;95433.28;5007434;28;20037;-77
2023/01/05 08:55:29;;;;;;;23.48;19.13;;;;;;;31.73;17.55;95439.47;5008740;28;20024;-77
2023/01/05 08:57:55;;;;;;;22.15;18.13;;;;;;;32.18;17.20;95430.22;5024243;28;20047;-78
2023/01/05 09:00:20;;;;;;;20.85;17.75;;;;;;;32.57;16.13;95430.94;5007755;28;20432;-77
2023/01/05 09:02:47;;;;;;;20.20;18.02;;;;;;;33.11;15.73;95414.44;5026106;28;20108;-76
2023/01/05 09:05:12;;;;;;;20.95;18.58;;;;;;;33.54;15.46;95404.72;5025161;28;20109;-77
2023/01/05 09:07:38;;;;;;;24.60;19.08;;;;;;;34.02;15.39;95398.88;5007981;28;20393;-77
2023/01/05 09:10:04;;;;;;;23.92;18.33;;;;;;;34.60;14.60;95388.06;5007140;28;20029;-76
2023/01/05 09:12:30;;;;;;;22.58;18.65;;;;;;;35.29;14.36;95397.88;5008611;28;20029;-78
2023/01/05 09:14:56;;;;;;;21.02;18.20;;;;;;;35.84;13.68;95391.56;5023741;28;20028;-76
2023/01/05 09:17:21;;;;;;;21.20;18.35;;;;;;;36.27;12.89;95374.81;5007796;28;20032;-77
2023/01/05 09:19:47;;;;;;;16.05;13.32;;;;;;;36.80;12.57;95358.00;5024477;28;20416;-77
2023/01/05 09:22:12;;;;;;;12.80;11.00;;;;;;;37.18;12.28;95354.34;5007028;28;20463;-76
2023/01/05 09:24:38;;;;;;;16.45;13.98;;;;;;;37.28;11.92;95351.44;5024480;28;20028;-77
2023/01/05 09:27:06;;;;;;;15.48;13.65;;;;;;;37.29;12.05;95350.84;5023811;28;20040;-77
2023/01/05 09:29:31;;;;;;;15.77;14.07;;;;;;;37.52;11.63;95344.63;5024928;28;20143;-77
2023/01/05 09:31:58;;;;;;;13.57;12.13;;;;;;;37.63;11.91;95343.97;5007186;28;20116;-77
2023/01/05 09:34:24;;;;;;;13.68;12.38;;;;;;;37.73;11.45;95349.66;5007977;28;20026;-78
2023/01/05 09:36:49;;;;;;;14.52;11.50;;;;;;;37.80;11.27;95345.13;5007415;28;20036;-77
2023/01/05 09:39:14;;;;;;;14.65;11.20;;;;;;;38.19;11.42;95326.31;5025072;28;20129;-76
2023/01/05 09:41:48;;;;;;;15.02;11.45;;;;;;;38.24;11.22;95319.47;5007771;28;20052;-77
2023/01/05 09:44:32;;;;;;;13.93;11.40;;;;;;;38.30;11.02;95309.81;5006872;28;20049;-76
2023/01/05 09:47:33;;;;;;;12.77;10.30;;;;;;;38.31;10.79;95303.47;5008927;28;20040;-79
2023/01/05 09:50:45;;;;;;;10.52;9.52;;;;;;;38.46;10.85;95308.00;5025807;28;20044;-80
2023/01/05 09:53:11;;;;;;;10.70;9.60;;;;;;;38.69;10.70;95298.75;5022902;28;20421;-78
2023/01/05 09:55:37;;;;;;;9.88;8.98;;;;;;;38.80;10.63;95288.69;5028328;28;20091;-77
2023/01/05 09:58:15;;;;;;;9.80;8.80;;;;;;;38.63;10.55;95281.13;5043710;28;20033;-78
2023/01/05 10:00:43;;;;;;;10.88;8.15;;;;;;;38.44;10.35;95276.31;5012219;28;20033;-76
2023/01/05 10:03:19;;;;;;;11.23;8.43;;;;;;;38.49;10.38;95272.34;5011380;28;20033;-77
2023/01/05 10:05:44;;;;;;;10.85;9.57;;;;;;;38.67;10.01;95273.53;5027245;28;20033;-78
2023/01/05 10:08:23;;;;;;;10.32;8.98;;;;;;;38.52;10.41;95266.09;5011383;28;20041;-77
2023/01/05 10:13:37;;;;;;;15.30;13.05;;;;;;;37.97;10.79;95264.56;5014304;28;20110;-77
2023/01/05 10:16:03;;;;;;;15.57;13.95;;;;;;;37.54;10.50;95270.22;5011148;28;20030;-77
2023/01/05 10:18:28;;;;;;;16.55;14.60;;;;;;;37.36;11.05;95278.28;5010741;28;20485;-77
2023/01/05 10:21:09;;;;;;;17.15;15.25;;;;;;;37.11;11.57;95264.34;5011391;28;20029;-76
2023/01/05 10:23:46;;;;;;;16.45;14.65;;;;;;;37.11;11.53;95258.63;5028190;28;20030;-77
2023/01/05 10:26:20;;;;;;;17.60;14.65;;;;;;;37.11;11.31;95252.13;5029308;28;20112;-79
2023/01/05 10:29:04;;;;;;;15.43;13.77;;;;;;;37.34;11.61;95249.47;5027234;28;20110;-77
2023/01/05 10:31:49;;;;;;;15.63;13.65;;;;;;;37.68;11.23;95242.53;5010424;28;20040;-75
2023/01/05 10:34:21;;;;;;;15.27;13.55;;;;;;;38.33;10.56;95240.44;5012338;28;20029;-78
2023/01/05 10:36:58;;;;;;;13.43;12.00;;;;;;;39.16;10.21;95247.91;5028138;28;20034;-78
2023/01/05 10:39:32;;;;;;;14.35;12.25;;;;;;;40.07;9.51;95237.66;5030017;28;20336;-77
2023/01/05 10:42:27;;;;;;;15.68;12.75;;;;;;;40.69;9.02;95222.53;5045861;28;20211;-76
2023/01/05 10:44:54;;;;;;;15.43;12.85;;;;;;;41.23;8.89;95215.41;5026364;28;20049;-79
2023/01/05 10:47:20;;;;;;;15.10;12.95;;;;;;;41.71;8.46;95218.69;5011455;28;20022;-78
2023/01/05 10:49:46;;;;;;;12.82;11.55;;;;;;;41.96;7.97;95212.06;5026628;28;20561;-80
2023/01/05 10:52:18;;;;;;;14.75;12.23;;;;;;;42.00;8.18;95209.38;5010943;28;20032;-77
2023/01/05 10:54:43;;;;;;;13.32;11.88;;;;;;;42.14;7.80;95205.06;4994530;28;20021;-78
2023/01/05 10:57:27;;;;;;;12.18;10.45;;;;;;;42.90;7.58;95200.09;5026225;28;20511;-79
2023/01/05 10:59:54;;;;;;;16.50;10.82;;;;;;;43.46;7.31;95190.44;5028458;28;20033;-79
2023/01/05 11:02:19;;;;;;;9.82;7.97;;;;;;;44.28;6.80;95202.72;5009446;28;20061;-78
2023/01/05 11:04:46;;;;;;;5.07;4.57;;;;;;;43.63;6.45;95191.16;5027197;28;20049;-77
2023/01/05 11:07:12;;;;;;;5.60;4.57;;;;;;;42.41;6.91;95189.06;4992843;28;20050;-77
2023/01/05 11:09:39;;;;;;;5.68;4.50;;;;;;;40.85;7.60;95171.56;5010116;28;20038;-78
2023/01/05 11:12:05;;;;;;;5.68;4.40;;;;;;;40.58;7.95;95174.38;5025230;28;20046;-76
2023/01/05 11:14:42;;;;;;;5.47;4.53;;;;;;;38.93;9.12;95173.16;5025992;28;20167;-76
2023/01/05 11:17:15;;;;;;;5.28;4.78;;;;;;;37.74;9.63;95168.38;4993970;28;20168;-77
2023/01/05 11:19:43;;;;;;;8.18;4.72;;;;;;;37.91;9.40;95173.09;4993203;28;20124;-77
2023/01/05 11:22:28;;;;;;;5.70;5.10;;;;;;;37.67;9.43;95172.19;5011309;28;20476;-79
2023/01/05 11:25:38;;;;;;;5.60;5.00;;;;;;;36.37;10.46;95160.19;5026992;28;20087;-77
2023/01/05 11:28:14;;;;;;;8.60;5.75;;;;;;;36.86;10.13;95160.81;5025111;28;20045;-77
2023/01/05 11:30:54;;;;;;;5.80;4.80;;;;;;;35.85;10.63;95150.00;5011782;28;20029;-77
2023/01/05 11:33:23;;;;;;;7.63;5.57;;;;;;;35.11;11.36;95140.84;5042620;28;20095;-75
2023/01/05 11:35:49;;;;;;;7.22;4.78;;;;;;;34.24;11.47;95146.13;4993146;28;20052;-76
2023/01/05 11:38:26;;;;;;;7.07;5.50;;;;;;;35.24;11.15;95156.81;5009489;28;20453;-77
2023/01/05 11:40:52;;;;;;;6.63;5.32;;;;;;;34.43;11.80;95151.22;4993019;28;20041;-77
2023/01/05 11:43:20;;;;;;;6.63;5.15;;;;;;;32.19;13.39;95147.38;4993545;28;20029;-77
2023/01/05 11:45:51;;;;;;;7.05;5.05;;;;;;;32.14;13.47;95136.97;5008875;28;20017;-77
2023/01/05 11:48:19;;;;;;;7.22;5.72;;;;;;;32.83;12.98;95130.09;5027297;28;20025;-76
2023/01/05 11:50:46;;;;;;;5.93;4.45;;;;;;;31.65;13.68;95129.75;5009758;28;20424;-76
2023/01/05 11:53:32;;;;;;;6.95;5.25;;;;;;;32.24;13.47;95139.94;5008591;28;20040;-76
2023/01/05 11:56:21;;;;;;;6.57;4.70;;;;;;;32.77;13.11;95130.31;5023453;28;20041;-79
2023/01/05 11:58:47;;;;;;;5.22;4.53;;;;;;;32.90;12.75;95126.44;4994095;28;20033;-77
2023/01/05 12:01:35;;;;;;;6.97;4.75;;;;;;;31.68;14.11;95142.06;5025790;28;20132;-77
2023/01/05 12:04:19;;;;;;;7.15;4.93;;;;;;;29.10;15.81;95136.03;5026980;28;20354;-75
2023/01/05 12:07:05;;;;;;;5.78;5.03;;;;;;;26.89;18.12;95126.53;5026229;28;20091;-77